createdAt,value
2024-03-03T00:01:23.810Z,5.80
2024-03-03T00:03:51.473Z,5.97
2024-03-03T00:06:19.089Z,8.88
2024-03-03T00:08:46.594Z,6.75
2024-03-03T00:11:14.266Z,7.03
2024-03-03T00:13:42.063Z,7.05
2024-03-03T00:16:09.742Z,6.20
2024-03-03T00:18:40.167Z,6.47
2024-03-03T00:21:17.050Z,8.35
2024-03-03T00:23:44.776Z,8.75
2024-03-03T00:26:12.296Z,6.47
2024-03-03T00:28:39.804Z,4.03
2024-03-03T00:33:34.852Z,6.13
2024-03-03T00:36:06.809Z,6.78
2024-03-03T00:38:35.861Z,8.38
2024-03-03T00:41:06.051Z,8.75
2024-03-03T00:43:33.744Z,5.25
2024-03-03T00:46:01.429Z,7.10
2024-03-03T00:48:29.328Z,7.35
2024-03-03T00:50:56.914Z,7.18
2024-03-03T00:53:24.531Z,7.93
2024-03-03T00:55:53.177Z,5.95
2024-03-03T00:58:22.075Z,7.00
2024-03-03T01:00:49.743Z,6.93
2024-03-03T01:03:17.418Z,7.72
2024-03-03T01:05:45.578Z,5.80
2024-03-03T01:08:13.216Z,6.15
2024-03-03T01:10:41.727Z,6.78
2024-03-03T01:13:09.297Z,7.45
2024-03-03T01:15:36.950Z,9.52
2024-03-03T01:18:05.267Z,9.38
2024-03-03T01:20:32.874Z,7.93
2024-03-03T01:23:00.499Z,8.75
2024-03-03T01:25:30.279Z,9.88
2024-03-03T01:27:57.965Z,8.32
2024-03-03T01:30:25.953Z,6.93
2024-03-03T01:32:53.496Z,10.20
2024-03-03T01:37:48.275Z,6.82
2024-03-03T01:42:43.395Z,5.45
2024-03-03T01:45:23.990Z,10.95
2024-03-03T01:47:53.367Z,7.80
2024-03-03T01:50:21.933Z,8.23
2024-03-03T01:52:52.044Z,6.30
2024-03-03T01:55:22.924Z,9.68
2024-03-03T01:57:54.377Z,6.80
2024-03-03T02:00:22.876Z,7.45
2024-03-03T02:02:51.023Z,7.72
2024-03-03T02:05:20.014Z,6.40
2024-03-03T02:07:48.107Z,7.13
2024-03-03T02:10:17.228Z,6.18
2024-03-03T02:12:48.056Z,6.03
2024-03-03T02:15:18.378Z,7.75
2024-03-03T02:17:46.037Z,8.75
2024-03-03T02:20:13.633Z,6.22
2024-03-03T02:22:41.162Z,7.93
2024-03-03T02:27:38.357Z,12.77
2024-03-03T02:30:06.548Z,9.85
2024-03-03T02:32:34.281Z,8.45
2024-03-03T02:35:01.865Z,6.45
2024-03-03T02:37:29.570Z,7.82
2024-03-03T02:39:57.271Z,7.68
2024-03-03T02:42:24.823Z,7.63
2024-03-03T02:44:52.392Z,5.65
2024-03-03T02:47:19.863Z,7.82
2024-03-03T02:52:14.827Z,8.55
2024-03-03T02:54:42.668Z,6.43
2024-03-03T02:57:10.264Z,9.93
2024-03-03T02:59:37.838Z,6.80
2024-03-03T03:02:05.910Z,6.03
2024-03-03T03:04:33.625Z,6.93
2024-03-03T03:07:01.179Z,9.65
2024-03-03T03:09:28.771Z,6.88
2024-03-03T03:11:56.246Z,6.57
2024-03-03T03:14:25.465Z,7.78
2024-03-03T03:16:53.048Z,3.97
2024-03-03T03:19:20.986Z,7.28
2024-03-03T03:21:49.052Z,5.88
2024-03-03T03:24:16.544Z,8.50
2024-03-03T03:29:11.302Z,6.80
2024-03-03T03:36:33.862Z,7.85
2024-03-03T03:39:02.709Z,6.50
2024-03-03T03:41:30.476Z,7.72
2024-03-03T03:43:57.994Z,7.78
2024-03-03T03:46:25.583Z,8.73
2024-03-03T03:48:53.616Z,9.30
2024-03-03T03:51:21.124Z,6.63
2024-03-03T03:56:15.860Z,7.18
2024-03-03T04:01:23.819Z,8.52
2024-03-03T04:03:51.400Z,6.35
2024-03-03T04:08:46.241Z,6.78
2024-03-03T04:11:13.772Z,8.95
2024-03-03T04:13:41.401Z,7.00
2024-03-03T04:16:09.109Z,6.22
2024-03-03T04:18:37.354Z,8.98
2024-03-03T04:21:05.272Z,8.60
2024-03-03T04:23:33.465Z,10.05
2024-03-03T04:26:06.502Z,7.22
2024-03-03T04:28:35.705Z,6.57
2024-03-03T04:31:09.521Z,9.07
2024-03-03T04:33:37.681Z,9.85
2024-03-03T04:36:12.968Z,8.00
2024-03-03T04:38:43.607Z,9.73
2024-03-03T04:41:19.098Z,8.52
2024-03-03T04:43:47.444Z,7.80
2024-03-03T04:46:15.233Z,6.18
2024-03-03T04:48:43.121Z,7.88
2024-03-03T04:51:10.663Z,6.82
2024-03-03T04:53:38.244Z,7.88
2024-03-03T04:58:33.533Z,9.02
2024-03-03T05:01:01.079Z,8.05
2024-03-03T05:03:28.672Z,7.57
2024-03-03T05:10:52.191Z,8.30
2024-03-03T05:13:19.939Z,4.03
2024-03-03T05:15:47.601Z,6.43
2024-03-03T05:18:16.144Z,5.88
2024-03-03T05:20:43.653Z,6.28
2024-03-03T05:23:11.186Z,4.80
2024-03-03T05:28:06.261Z,5.63
2024-03-03T05:30:38.220Z,6.05
2024-03-03T05:33:08.019Z,5.53
2024-03-03T05:35:38.012Z,8.70
2024-03-03T05:38:05.902Z,5.32
2024-03-03T05:40:33.477Z,9.40
2024-03-03T05:43:01.574Z,5.07
2024-03-03T05:45:29.245Z,5.90
2024-03-03T05:47:57.003Z,7.53
2024-03-03T05:50:24.539Z,7.78
2024-03-03T05:55:19.432Z,8.73
2024-03-03T05:57:48.295Z,5.85
2024-03-03T06:00:17.305Z,5.38
2024-03-03T06:02:45.042Z,7.38
2024-03-03T06:05:12.585Z,6.45
2024-03-03T06:07:40.152Z,6.75
2024-03-03T06:10:08.854Z,6.05
2024-03-03T06:12:36.473Z,7.28
2024-03-03T06:15:04.084Z,6.35
2024-03-03T06:17:31.616Z,7.05
2024-03-03T06:19:59.124Z,6.15
2024-03-03T06:24:54.045Z,5.15
2024-03-03T06:27:21.545Z,9.05
2024-03-03T06:29:49.112Z,6.97
2024-03-03T06:34:48.414Z,4.68
2024-03-03T06:37:16.820Z,6.28
2024-03-03T06:39:45.686Z,6.18
2024-03-03T06:42:13.302Z,9.18
2024-03-03T06:47:09.058Z,6.47
2024-03-03T06:49:36.637Z,6.90
2024-03-03T06:52:04.741Z,7.18
2024-03-03T06:54:32.190Z,8.90
2024-03-03T07:01:56.242Z,6.10
2024-03-03T07:04:26.991Z,6.25
2024-03-03T07:06:55.891Z,8.82
2024-03-03T07:09:24.575Z,8.90
2024-03-03T07:11:56.235Z,8.80
2024-03-03T07:14:25.088Z,5.65
2024-03-03T07:16:52.931Z,8.93
2024-03-03T07:19:20.581Z,7.57
2024-03-03T07:21:48.129Z,8.52
2024-03-03T07:24:16.323Z,7.82
2024-03-03T07:26:43.869Z,7.40
2024-03-03T07:29:11.584Z,7.72
2024-03-03T07:31:39.049Z,9.52
2024-03-03T07:34:06.659Z,6.85
2024-03-03T07:36:34.296Z,7.10
2024-03-03T07:39:03.258Z,5.43
2024-03-03T07:41:30.744Z,5.05
2024-03-03T07:43:58.248Z,6.25
2024-03-03T07:46:25.759Z,7.53
2024-03-03T07:48:53.515Z,6.30
2024-03-03T07:51:23.233Z,8.05
2024-03-03T07:53:50.958Z,5.15
2024-03-03T07:56:18.524Z,5.43
2024-03-03T07:58:46.074Z,7.82
2024-03-03T08:01:13.785Z,8.38
2024-03-03T08:03:41.479Z,6.40
2024-03-03T08:06:12.192Z,7.32
2024-03-03T08:08:39.677Z,3.33
2024-03-03T08:11:07.138Z,3.53
2024-03-03T08:13:34.718Z,4.45
2024-03-03T08:16:02.194Z,5.68
2024-03-03T08:18:29.920Z,3.35
2024-03-03T08:21:04.504Z,6.72
2024-03-03T08:23:35.418Z,6.35
2024-03-03T08:26:02.940Z,3.10
2024-03-03T08:28:30.554Z,5.07
2024-03-03T08:30:58.004Z,4.25
2024-03-03T08:33:25.551Z,4.32
2024-03-03T08:35:53.039Z,3.40
2024-03-03T08:38:20.656Z,5.40
2024-03-03T08:40:48.130Z,5.95
2024-03-03T08:43:15.732Z,5.13
2024-03-03T08:45:43.493Z,3.92
2024-03-03T08:48:11.080Z,3.80
2024-03-03T08:50:38.705Z,4.22
2024-03-03T08:53:07.221Z,4.07
2024-03-03T08:55:35.189Z,5.30
2024-03-03T08:58:02.865Z,3.90
2024-03-03T09:00:30.340Z,6.40
2024-03-03T09:02:58.064Z,3.95
2024-03-03T09:05:25.716Z,3.13
2024-03-03T09:07:54.811Z,2.63
2024-03-03T09:10:22.345Z,4.30
2024-03-03T09:12:49.839Z,2.30
2024-03-03T09:15:17.329Z,3.13
2024-03-03T09:17:45.412Z,4.05
2024-03-03T09:20:13.373Z,3.78
2024-03-03T09:22:41.022Z,2.38
2024-03-03T09:25:09.027Z,1.15
2024-03-03T09:27:37.018Z,2.55
2024-03-03T09:30:07.420Z,2.28
2024-03-03T09:32:36.842Z,1.23
2024-03-03T09:35:05.225Z,1.17
2024-03-03T09:37:32.978Z,2.92
2024-03-03T09:40:00.483Z,1.80
2024-03-03T09:42:28.149Z,3.40
2024-03-03T09:44:59.311Z,1.92
2024-03-03T09:47:29.631Z,3.80
2024-03-03T09:49:57.902Z,0.82
2024-03-03T09:52:27.370Z,2.50
2024-03-03T09:54:54.952Z,3.25
2024-03-03T09:57:23.315Z,5.90
2024-03-03T09:59:54.051Z,2.92
2024-03-03T10:02:26.057Z,3.10
2024-03-03T10:04:56.535Z,3.88
2024-03-03T10:07:24.845Z,4.07
2024-03-03T10:10:07.236Z,3.45
2024-03-03T10:12:35.079Z,2.20
2024-03-03T10:15:05.978Z,2.85
2024-03-03T10:17:33.639Z,2.95
2024-03-03T10:20:07.305Z,4.20
2024-03-03T10:22:41.776Z,5.28
2024-03-03T10:25:16.611Z,2.47
2024-03-03T10:27:46.774Z,2.95
2024-03-03T10:30:19.220Z,1.75
2024-03-03T10:32:48.817Z,1.83
2024-03-03T10:35:17.744Z,2.45
2024-03-03T10:38:03.291Z,1.85
2024-03-03T10:40:34.772Z,4.28
2024-03-03T10:43:02.374Z,3.17
2024-03-03T10:45:30.979Z,3.05
2024-03-03T10:47:58.907Z,1.10
2024-03-03T10:50:26.898Z,2.20
2024-03-03T10:52:54.600Z,3.60
2024-03-03T10:55:25.846Z,2.03
2024-03-03T10:57:55.256Z,3.13
2024-03-03T11:00:26.430Z,2.30
2024-03-03T11:02:56.290Z,3.53
2024-03-03T11:05:24.626Z,1.88
2024-03-03T11:07:52.346Z,2.30
2024-03-03T11:10:21.046Z,2.67
2024-03-03T11:12:51.779Z,2.42
2024-03-03T11:15:21.686Z,1.88
2024-03-03T11:18:13.763Z,3.35
2024-03-03T11:20:47.002Z,1.80
2024-03-03T11:23:21.950Z,2.08
2024-03-03T11:26:18.785Z,5.78
2024-03-03T11:28:49.890Z,2.65
2024-03-03T11:31:17.640Z,0.85
2024-03-03T11:33:45.832Z,2.55
2024-03-03T11:36:13.875Z,3.22
2024-03-03T11:38:43.832Z,2.00
2024-03-03T11:41:14.513Z,2.45
2024-03-03T11:43:43.063Z,3.30
2024-03-03T11:46:11.260Z,3.53
2024-03-03T11:48:42.889Z,2.25
2024-03-03T11:51:27.355Z,0.95
2024-03-03T11:54:08.555Z,1.40
2024-03-03T11:56:47.029Z,3.72
2024-03-03T11:59:15.432Z,2.90
2024-03-03T12:01:50.621Z,3.42
2024-03-03T12:04:18.402Z,3.03
2024-03-03T12:06:47.565Z,3.40
2024-03-03T12:09:18.370Z,6.22
2024-03-03T12:11:49.454Z,3.80
2024-03-03T12:14:17.396Z,3.38
2024-03-03T12:16:44.881Z,3.28
2024-03-03T12:19:14.868Z,5.78
2024-03-03T12:21:43.092Z,6.35
2024-03-03T12:24:14.867Z,4.45
2024-03-03T12:26:42.478Z,2.60
2024-03-03T12:29:10.411Z,4.55
2024-03-03T12:31:38.005Z,6.30
2024-03-03T12:34:05.844Z,4.82
2024-03-03T12:36:33.479Z,1.80
2024-03-03T12:39:01.297Z,5.45
2024-03-03T12:41:29.228Z,5.03
2024-03-03T12:44:07.792Z,3.65
2024-03-03T12:46:41.420Z,4.78
2024-03-03T12:49:09.274Z,2.05
2024-03-03T12:51:37.357Z,4.55
2024-03-03T12:54:05.538Z,5.50
2024-03-03T12:56:32.958Z,4.18
2024-03-03T12:59:01.543Z,2.20
2024-03-03T13:01:29.633Z,2.83
2024-03-03T13:03:57.975Z,5.38
2024-03-03T13:06:32.890Z,4.22
2024-03-03T13:09:10.991Z,5.03
2024-03-03T13:11:40.929Z,2.33
2024-03-03T13:14:15.404Z,4.65
2024-03-03T13:19:15.906Z,5.80
2024-03-03T13:21:49.860Z,7.25
2024-03-03T13:24:20.254Z,5.53
2024-03-03T13:26:47.856Z,6.53
2024-03-03T13:29:15.333Z,4.43
2024-03-03T13:31:42.914Z,4.90
2024-03-03T13:34:10.623Z,3.30
2024-03-03T13:36:38.557Z,4.30
2024-03-03T13:39:11.391Z,4.55
2024-03-03T13:41:39.676Z,3.03
2024-03-03T13:44:08.210Z,5.97
2024-03-03T13:46:35.760Z,5.82
2024-03-03T13:49:03.870Z,4.57
2024-03-03T13:51:31.685Z,3.47
2024-03-03T13:53:59.088Z,4.45
2024-03-03T13:56:27.069Z,5.95
2024-03-03T13:58:54.516Z,6.60
2024-03-03T14:01:22.147Z,7.35
2024-03-03T14:03:49.575Z,7.13
2024-03-03T14:06:17.045Z,4.63
2024-03-03T14:08:44.670Z,8.40
2024-03-03T14:11:12.363Z,6.93
2024-03-03T14:13:39.786Z,4.55
2024-03-03T14:16:08.190Z,5.47
2024-03-03T14:18:36.067Z,5.55
2024-03-03T14:21:03.716Z,7.90
2024-03-03T14:23:31.608Z,8.27
2024-03-03T14:25:59.033Z,4.40
2024-03-03T14:28:26.413Z,5.85
2024-03-03T14:30:53.884Z,8.20
2024-03-03T14:33:21.350Z,3.17
2024-03-03T14:35:48.899Z,5.53
2024-03-03T14:38:19.117Z,4.30
2024-03-03T14:40:47.249Z,3.63
2024-03-03T14:43:14.661Z,3.63
2024-03-03T14:45:42.209Z,2.95
2024-03-03T14:48:09.755Z,1.77
2024-03-03T14:50:37.210Z,4.00
2024-03-03T14:53:05.282Z,2.65
2024-03-03T14:55:32.985Z,3.90
2024-03-03T14:58:00.712Z,5.15
2024-03-03T15:00:29.324Z,2.67
2024-03-03T15:02:56.818Z,3.78
2024-03-03T15:05:24.312Z,8.27
2024-03-03T15:07:52.475Z,6.90
2024-03-03T15:10:20.766Z,6.38
2024-03-03T15:12:48.582Z,8.25
2024-03-03T15:15:16.240Z,3.75
2024-03-03T15:17:44.593Z,5.93
2024-03-03T15:20:14.937Z,4.72
2024-03-03T15:22:42.548Z,4.13
2024-03-03T15:25:10.374Z,5.75
2024-03-03T15:27:38.513Z,4.97
2024-03-03T15:30:07.004Z,5.93
2024-03-03T15:32:34.932Z,7.57
2024-03-03T15:35:02.707Z,6.38
2024-03-03T15:37:34.887Z,5.50
2024-03-03T15:40:04.480Z,5.35
2024-03-03T15:42:31.904Z,3.40
2024-03-03T15:44:59.320Z,9.65
2024-03-03T15:47:27.008Z,4.88
2024-03-03T15:49:54.554Z,3.17
2024-03-03T15:52:22.277Z,4.63
2024-03-03T15:54:49.841Z,7.22
2024-03-03T15:57:17.928Z,5.22
2024-03-03T15:59:45.314Z,5.07
2024-03-03T16:04:41.639Z,7.32
2024-03-03T16:07:09.214Z,9.30
2024-03-03T16:09:36.793Z,7.22
2024-03-03T16:12:04.881Z,5.85
2024-03-03T16:14:33.618Z,8.70
2024-03-03T16:17:01.300Z,5.55
2024-03-03T16:19:29.017Z,6.63
2024-03-03T16:21:56.679Z,4.97
2024-03-03T16:24:24.250Z,4.43
2024-03-03T16:26:51.898Z,5.97
2024-03-03T16:29:19.424Z,5.95
2024-03-03T16:31:47.702Z,5.00
2024-03-03T16:34:15.325Z,4.35
2024-03-03T16:36:43.818Z,5.20
2024-03-03T16:39:11.389Z,10.02
2024-03-03T16:41:38.901Z,4.20
2024-03-03T16:44:06.396Z,4.82
2024-03-03T16:46:34.008Z,2.17
2024-03-03T16:49:02.456Z,2.45
2024-03-03T16:51:30.068Z,4.40
2024-03-03T16:53:57.595Z,4.38
2024-03-03T16:56:25.098Z,4.10
2024-03-03T16:58:53.099Z,4.72
2024-03-03T17:01:20.946Z,3.38
2024-03-03T17:03:48.546Z,5.10
2024-03-03T17:06:16.829Z,7.28
2024-03-03T17:08:44.419Z,4.57
2024-03-03T17:11:11.920Z,4.43
2024-03-03T17:13:39.557Z,5.90
2024-03-03T17:16:07.984Z,6.47
2024-03-03T17:18:35.863Z,9.02
2024-03-03T17:21:06.080Z,5.13
2024-03-03T17:23:33.664Z,6.13
2024-03-03T17:26:01.130Z,6.68
2024-03-03T17:28:28.681Z,4.50
2024-03-03T17:30:56.313Z,7.97
2024-03-03T17:33:23.985Z,4.22
2024-03-03T17:35:51.461Z,6.93
2024-03-03T17:38:19.771Z,4.38
2024-03-03T17:40:47.307Z,4.63
2024-03-03T17:43:14.946Z,3.90
2024-03-03T17:45:43.121Z,3.78
2024-03-03T17:48:10.785Z,3.70
2024-03-03T17:50:38.662Z,4.05
2024-03-03T17:53:06.166Z,5.53
2024-03-03T17:55:33.928Z,4.07
2024-03-03T17:58:01.652Z,4.50
2024-03-03T18:00:29.201Z,6.65
2024-03-03T18:02:57.684Z,3.38
2024-03-03T18:05:25.416Z,6.25
2024-03-03T18:07:53.304Z,3.58
2024-03-03T18:10:20.816Z,5.65
2024-03-03T18:12:48.600Z,6.45
2024-03-03T18:15:16.161Z,3.47
2024-03-03T18:17:43.776Z,4.63
2024-03-03T18:20:11.684Z,4.30
2024-03-03T18:22:39.265Z,6.68
2024-03-03T18:25:07.130Z,6.55
2024-03-03T18:27:34.732Z,5.95
2024-03-03T18:30:02.424Z,13.23
2024-03-03T18:32:31.410Z,11.90
2024-03-03T18:35:00.536Z,10.40
2024-03-03T18:37:28.660Z,8.07
2024-03-03T18:39:57.075Z,5.47
2024-03-03T18:42:26.074Z,9.30
2024-03-03T18:44:56.384Z,8.32
2024-03-03T18:47:23.956Z,9.88
2024-03-03T18:49:51.726Z,10.02
2024-03-03T18:52:19.300Z,12.00
2024-03-03T18:54:52.850Z,13.63
2024-03-03T18:57:20.563Z,12.35
2024-03-03T18:59:48.097Z,13.80
2024-03-03T19:02:15.769Z,14.85
2024-03-03T19:04:43.362Z,18.70
2024-03-03T19:07:11.946Z,17.40
2024-03-03T19:09:41.915Z,25.65
2024-03-03T19:12:10.050Z,31.02
2024-03-03T19:14:37.544Z,40.40
2024-03-03T19:17:05.302Z,37.33
2024-03-03T19:19:33.007Z,29.45
2024-03-03T19:22:01.566Z,28.63
2024-03-03T19:24:30.241Z,27.65
2024-03-03T19:26:57.852Z,36.63
2024-03-03T19:29:26.435Z,45.47
2024-03-03T19:31:54.065Z,45.53
2024-03-03T19:34:22.818Z,51.38
2024-03-03T19:36:50.464Z,38.58
2024-03-03T19:39:17.939Z,40.97
2024-03-03T19:41:45.499Z,37.30
2024-03-03T19:44:14.091Z,25.27
2024-03-03T19:46:42.869Z,26.98
2024-03-03T19:49:12.472Z,26.83
2024-03-03T19:51:40.042Z,18.33
2024-03-03T19:54:07.522Z,21.08
2024-03-03T19:56:35.193Z,24.50
2024-03-03T19:59:02.888Z,27.05
2024-03-03T20:01:30.445Z,25.30
2024-03-03T20:03:58.434Z,24.67
2024-03-03T20:06:26.052Z,21.92
2024-03-03T20:08:53.703Z,26.35
2024-03-03T20:11:21.249Z,24.88
2024-03-03T20:13:48.845Z,21.48
2024-03-03T20:16:16.561Z,32.30
2024-03-03T20:18:47.358Z,26.42
2024-03-03T20:21:14.850Z,23.88
2024-03-03T20:26:09.970Z,21.80
2024-03-03T20:28:37.540Z,26.52
2024-03-03T20:31:05.337Z,24.40
2024-03-03T20:33:32.886Z,31.35
2024-03-03T20:36:00.566Z,32.88
2024-03-03T20:38:28.063Z,29.00
2024-03-03T20:40:55.643Z,28.75
2024-03-03T20:43:23.207Z,31.40
2024-03-03T20:45:51.274Z,26.95
2024-03-03T20:48:19.868Z,27.55
2024-03-03T20:50:47.546Z,31.83
2024-03-03T20:53:16.532Z,29.02
2024-03-03T20:55:45.119Z,28.90
2024-03-03T20:58:12.729Z,25.95
2024-03-03T21:00:40.315Z,24.63
2024-03-03T21:03:07.823Z,24.02
2024-03-03T21:05:35.394Z,27.77
2024-03-03T21:08:02.948Z,27.48
2024-03-03T21:10:30.732Z,26.55
2024-03-03T21:12:58.869Z,30.20
2024-03-03T21:15:26.365Z,23.85
2024-03-03T21:20:21.357Z,26.88
2024-03-03T21:22:48.856Z,34.00
2024-03-03T21:25:16.672Z,33.75
2024-03-03T21:27:44.263Z,30.33
2024-03-03T21:30:12.185Z,28.35
2024-03-03T21:32:39.777Z,37.45
2024-03-03T21:35:07.591Z,30.52
2024-03-03T21:37:35.650Z,29.48
2024-03-03T21:40:04.745Z,28.60
2024-03-03T21:42:32.279Z,24.20
2024-03-03T21:44:59.881Z,22.85
2024-03-03T21:47:27.564Z,21.85
2024-03-03T21:49:55.042Z,31.17
2024-03-03T21:54:49.952Z,27.63
2024-03-03T21:57:17.992Z,29.33
2024-03-03T21:59:45.488Z,28.88
2024-03-03T22:04:40.595Z,24.35
2024-03-03T22:07:08.751Z,26.27
2024-03-03T22:09:36.376Z,29.05
2024-03-03T22:12:04.123Z,30.30
2024-03-03T22:14:31.651Z,27.88
2024-03-03T22:19:27.630Z,28.77
2024-03-03T22:21:55.360Z,28.38
2024-03-03T22:24:23.090Z,25.70
2024-03-03T22:26:50.532Z,26.10
2024-03-03T22:29:18.980Z,28.50
2024-03-03T22:31:46.528Z,34.58
2024-03-03T22:34:14.264Z,24.02
2024-03-03T22:36:41.920Z,21.02
2024-03-03T22:39:09.454Z,19.73
2024-03-03T22:41:37.025Z,22.02
2024-03-03T22:44:05.049Z,24.17
2024-03-03T22:46:32.902Z,23.42
2024-03-03T22:49:00.677Z,26.40
2024-03-03T22:51:28.227Z,18.85
2024-03-03T22:53:55.809Z,24.17
2024-03-03T22:56:23.377Z,24.25
2024-03-03T22:58:53.505Z,24.15
2024-03-03T23:01:21.492Z,21.95
2024-03-03T23:03:49.073Z,18.35
2024-03-03T23:08:43.716Z,16.80
2024-03-03T23:13:39.350Z,21.73
2024-03-03T23:16:07.668Z,19.85
2024-03-03T23:18:35.242Z,21.63
2024-03-03T23:21:02.736Z,19.95
2024-03-03T23:25:58.094Z,18.75
2024-03-03T23:28:26.791Z,20.02
2024-03-03T23:30:54.481Z,19.65
2024-03-03T23:33:22.024Z,18.85
2024-03-03T23:35:49.523Z,18.15
2024-03-03T23:38:17.371Z,16.92
2024-03-03T23:40:45.119Z,17.70
2024-03-03T23:43:13.192Z,18.05
2024-03-03T23:45:40.691Z,20.23
2024-03-03T23:48:08.272Z,19.00
2024-03-03T23:50:35.877Z,18.58
2024-03-03T23:53:03.626Z,20.88
2024-03-03T23:55:31.235Z,18.38
2024-03-03T23:57:58.822Z,19.88
